Time;durP1;ratioP1;P1;durP2;ratioP2;P2;SDS_P1;SDS_P2;PMS_P1;PMS_P2;Temp;Humidity;BMP_temperature;BMP_pressure;BME280_temperature;BME280_humidity;BME280_pressure;Samples;Min_cycle;Max_cycle;Signal;HPM_P1;HPM_P2
2022/05/28 00:00:53;;;;;;;14.80;2.47;;;;;;;;;;5051177;28;20056;-72
2022/05/28 00:03:20;;;;;;;10.77;2.10;;;;;;;;;;5051437;28;20482;-73
2022/05/28 00:05:46;;;;;;;9.88;2.15;;;;;;;;;;5051373;28;20029;-72
2022/05/28 00:08:12;;;;;;;14.30;2.38;;;;;;;;;;5051297;28;20036;-72
2022/05/28 00:10:38;;;;;;;7.13;1.80;;;;;;;;;;5050898;28;20032;-72
2022/05/28 00:13:04;;;;;;;10.85;2.00;;;;;;;;;;5051786;28;20057;-72
2022/05/28 00:15:30;;;;;;;12.23;2.30;;;;;;;;;;5055193;28;20025;-72
2022/05/28 00:17:58;;;;;;;11.50;2.10;;;;;;;;;;5055494;28;20021;-72
2022/05/28 00:20:25;;;;;;;18.45;3.10;;;;;;;;;;5055135;28;20096;-73
2022/05/28 00:22:51;;;;;;;19.73;3.47;;;;;;;;;;5055389;28;20043;-72
2022/05/28 00:25:17;;;;;;;11.73;1.88;;;;;;;;;;5054954;28;20024;-73
2022/05/28 00:27:44;;;;;;;17.35;2.50;;;;;;;;;;5054964;28;20075;-72
2022/05/28 00:30:11;;;;;;;19.23;3.75;;;;;;;;;;5055005;28;20091;-72
2022/05/28 00:32:37;;;;;;;12.13;2.10;;;;;;;;;;5054811;28;20025;-72
2022/05/28 00:35:04;;;;;;;9.85;2.00;;;;;;;;;;5054965;28;20447;-72
2022/05/28 00:37:31;;;;;;;14.85;2.30;;;;;;;;;;5054934;28;20027;-72
2022/05/28 00:39:57;;;;;;;13.00;2.47;;;;;;;;;;5054686;28;20053;-72
2022/05/28 00:42:23;;;;;;;12.15;2.17;;;;;;;;;;5054890;28;20017;-72
2022/05/28 00:44:49;;;;;;;12.32;2.53;;;;;;;;;;5054681;28;20128;-72
2022/05/28 00:47:16;;;;;;;14.15;2.22;;;;;;;;;;5054673;28;20052;-72
2022/05/28 00:49:43;;;;;;;14.43;2.40;;;;;;;;;;5054767;28;20036;-73
2022/05/28 00:52:09;;;;;;;11.02;2.63;;;;;;;;;;5054441;28;20028;-72
2022/05/28 00:54:40;;;;;;;9.55;2.08;;;;;;;;;;5054492;28;20036;-73
2022/05/28 00:57:06;;;;;;;14.90;3.05;;;;;;;;;;5054462;28;20025;-73
2022/05/28 00:59:32;;;;;;;10.27;2.78;;;;;;;;;;5054222;28;20637;-72
2022/05/28 01:02:05;;;;;;;13.48;2.80;;;;;;;;;;5054392;28;20039;-73
2022/05/28 01:04:31;;;;;;;14.30;2.70;;;;;;;;;;5054201;28;20021;-72
2022/05/28 01:07:04;;;;;;;7.80;2.35;;;;;;;;;;5054460;28;20032;-72
2022/05/28 01:09:49;;;;;;;14.73;2.67;;;;;;;;;;5054308;28;20055;-72
2022/05/28 01:12:17;;;;;;;8.00;2.65;;;;;;;;;;5054000;28;20099;-72
2022/05/28 01:14:55;;;;;;;8.77;2.40;;;;;;;;;;5054295;28;20113;-72
2022/05/28 01:17:27;;;;;;;7.35;2.20;;;;;;;;;;5053876;28;20151;-72
2022/05/28 01:20:02;;;;;;;17.70;2.72;;;;;;;;;;5054009;28;20376;-72
2022/05/28 01:22:28;;;;;;;13.88;2.60;;;;;;;;;;5054043;28;20017;-72
2022/05/28 01:25:06;;;;;;;12.48;2.97;;;;;;;;;;5052496;28;20025;-72
2022/05/28 01:27:34;;;;;;;16.20;2.83;;;;;;;;;;5034142;28;20025;-73
2022/05/28 01:30:02;;;;;;;15.68;3.60;;;;;;;;;;5033847;28;20036;-73
2022/05/28 01:32:31;;;;;;;9.63;2.38;;;;;;;;;;5033974;28;20084;-72
2022/05/28 01:34:58;;;;;;;7.13;2.55;;;;;;;;;;5034015;28;20029;-72
2022/05/28 01:37:24;;;;;;;13.63;3.22;;;;;;;;;;5034163;28;20033;-72
2022/05/28 01:39:51;;;;;;;11.18;2.83;;;;;;;;;;5033942;28;20036;-72
2022/05/28 01:42:18;;;;;;;19.52;3.13;;;;;;;;;;5033794;28;20022;-72
2022/05/28 01:44:46;;;;;;;17.67;2.88;;;;;;;;;;5033790;28;20107;-73
2022/05/28 01:47:13;;;;;;;19.60;2.80;;;;;;;;;;5033837;28;20025;-72
2022/05/28 01:49:40;;;;;;;15.85;3.10;;;;;;;;;;5033746;28;20458;-73
2022/05/28 01:52:07;;;;;;;14.30;2.60;;;;;;;;;;5033840;28;20487;-72
2022/05/28 01:54:34;;;;;;;10.98;2.35;;;;;;;;;;5033671;28;20037;-73
2022/05/28 01:57:01;;;;;;;9.77;2.50;;;;;;;;;;5033710;28;20555;-72
2022/05/28 01:59:28;;;;;;;13.65;2.58;;;;;;;;;;5043648;28;20017;-72
2022/05/28 02:01:55;;;;;;;9.15;2.60;;;;;;;;;;5052022;28;20060;-72
2022/05/28 02:04:22;;;;;;;15.40;3.63;;;;;;;;;;5053433;28;20132;-72
2022/05/28 02:06:48;;;;;;;11.75;2.70;;;;;;;;;;5053517;28;20378;-73
2022/05/28 02:09:20;;;;;;;17.58;2.80;;;;;;;;;;5053240;28;20044;-72
2022/05/28 02:11:55;;;;;;;14.07;3.08;;;;;;;;;;5053191;28;20435;-72
2022/05/28 02:14:21;;;;;;;9.93;2.58;;;;;;;;;;5053203;28;20037;-72
2022/05/28 02:16:54;;;;;;;12.35;2.55;;;;;;;;;;5053132;28;20025;-72
2022/05/28 02:19:32;;;;;;;15.13;2.88;;;;;;;;;;5053229;28;20090;-73
2022/05/28 02:22:04;;;;;;;15.02;2.55;;;;;;;;;;5053097;28;20095;-72
2022/05/28 02:24:40;;;;;;;13.93;3.00;;;;;;;;;;5053056;28;20032;-72
2022/05/28 02:27:09;;;;;;;12.23;3.03;;;;;;;;;;5052861;28;20332;-72
2022/05/28 02:29:35;;;;;;;11.27;3.35;;;;;;;;;;5052831;28;20033;-72
2022/05/28 02:32:11;;;;;;;16.20;3.25;;;;;;;;;;5052858;28;20409;-73
2022/05/28 02:34:37;;;;;;;11.25;2.78;;;;;;;;;;5052794;28;20467;-72
2022/05/28 02:37:03;;;;;;;14.55;2.78;;;;;;;;;;5052502;28;20495;-72
2022/05/28 02:39:29;;;;;;;10.68;2.10;;;;;;;;;;5052758;28;20025;-72
2022/05/28 02:41:56;;;;;;;17.08;3.03;;;;;;;;;;5052668;28;20029;-72
2022/05/28 02:44:23;;;;;;;19.10;2.65;;;;;;;;;;5052705;28;20021;-72
2022/05/28 02:46:49;;;;;;;26.17;2.92;;;;;;;;;;5052726;28;20055;-72
2022/05/28 02:49:15;;;;;;;13.77;2.40;;;;;;;;;;5052491;28;20389;-72
2022/05/28 02:51:41;;;;;;;16.98;2.42;;;;;;;;;;5052536;28;20025;-72
2022/05/28 02:54:07;;;;;;;9.35;2.00;;;;;;;;;;5052414;28;20386;-72
2022/05/28 02:56:34;;;;;;;21.73;3.10;;;;;;;;;;5052456;28;20087;-72
2022/05/28 02:59:00;;;;;;;15.70;2.22;;;;;;;;;;5051054;28;20040;-72
2022/05/28 03:01:27;;;;;;;14.20;2.20;;;;;;;;;;5052314;28;20032;-72
2022/05/28 03:03:53;;;;;;;19.58;2.28;;;;;;;;;;5052169;28;20021;-72
2022/05/28 03:06:19;;;;;;;14.57;2.28;;;;;;;;;;5052375;28;20047;-72
2022/05/28 03:08:46;;;;;;;11.80;2.13;;;;;;;;;;5052299;28;20025;-72
2022/05/28 03:11:12;;;;;;;18.73;2.10;;;;;;;;;;5052113;28;20082;-72
2022/05/28 03:13:40;;;;;;;19.40;2.40;;;;;;;;;;5052007;28;20553;-72
2022/05/28 03:16:06;;;;;;;14.85;2.35;;;;;;;;;;5050608;28;20044;-72
2022/05/28 03:18:32;;;;;;;11.15;1.83;;;;;;;;;;5052104;28;20013;-72
2022/05/28 03:20:58;;;;;;;17.02;2.95;;;;;;;;;;5052015;28;20372;-72
2022/05/28 03:23:24;;;;;;;6.95;2.00;;;;;;;;;;5052088;28;20083;-72
2022/05/28 03:25:50;;;;;;;13.10;2.13;;;;;;;;;;5044559;28;20030;-72
2022/05/28 03:28:16;;;;;;;14.80;1.85;;;;;;;;;;5031922;28;20037;-72
2022/05/28 03:30:43;;;;;;;10.70;1.98;;;;;;;;;;5031862;28;20104;-72
2022/05/28 03:33:09;;;;;;;14.65;2.85;;;;;;;;;;5031820;28;20029;-72
2022/05/28 03:35:37;;;;;;;19.35;2.38;;;;;;;;;;5031593;28;20029;-72
2022/05/28 03:38:03;;;;;;;15.05;2.50;;;;;;;;;;5030396;28;20030;-72
2022/05/28 03:40:29;;;;;;;14.70;2.30;;;;;;;;;;5031809;28;20379;-72
2022/05/28 03:42:55;;;;;;;12.85;2.00;;;;;;;;;;5031808;28;20361;-72
2022/05/28 03:45:22;;;;;;;15.57;2.15;;;;;;;;;;5031723;28;20051;-72
2022/05/28 03:47:48;;;;;;;13.95;1.83;;;;;;;;;;5030957;28;20119;-72
2022/05/28 03:50:14;;;;;;;13.02;2.75;;;;;;;;;;5031746;28;20040;-72
2022/05/28 03:52:40;;;;;;;15.50;2.15;;;;;;;;;;5031615;28;20030;-72
2022/05/28 03:55:06;;;;;;;12.55;2.20;;;;;;;;;;5031651;28;20034;-72
2022/05/28 03:57:33;;;;;;;16.38;2.22;;;;;;;;;;5031720;28;20072;-73
2022/05/28 04:00:00;;;;;;;11.90;1.77;;;;;;;;;;5046042;28;20095;-72
2022/05/28 04:02:27;;;;;;;13.27;2.15;;;;;;;;;;5051436;28;20021;-72
2022/05/28 04:04:53;;;;;;;17.30;1.73;;;;;;;;;;5051451;28;20039;-72
2022/05/28 04:07:20;;;;;;;12.48;1.60;;;;;;;;;;5051710;28;20017;-72
2022/05/28 04:09:46;;;;;;;8.90;1.88;;;;;;;;;;5051532;28;20041;-72
2022/05/28 04:12:13;;;;;;;10.52;1.40;;;;;;;;;;5051356;28;20053;-72
2022/05/28 04:14:39;;;;;;;10.65;1.65;;;;;;;;;;5049880;28;20498;-72
2022/05/28 04:17:05;;;;;;;16.25;2.38;;;;;;;;;;5051317;28;20036;-73
2022/05/28 04:19:31;;;;;;;9.68;1.13;;;;;;;;;;5051499;28;20017;-72
2022/05/28 04:21:57;;;;;;;6.20;1.05;;;;;;;;;;5051374;28;20040;-72
2022/05/28 04:24:24;;;;;;;8.95;1.65;;;;;;;;;;5051240;28;20028;-72
2022/05/28 04:26:50;;;;;;;13.77;1.48;;;;;;;;;;5051129;28;20029;-72
2022/05/28 04:29:16;;;;;;;6.47;1.30;;;;;;;;;;5051180;28;20033;-72
2022/05/28 04:31:42;;;;;;;8.45;1.48;;;;;;;;;;5051161;28;20029;-72
2022/05/28 04:34:09;;;;;;;11.48;0.95;;;;;;;;;;5051245;28;20024;-72
2022/05/28 04:36:35;;;;;;;5.45;1.08;;;;;;;;;;5051346;28;20074;-72
2022/05/28 04:39:01;;;;;;;6.53;1.17;;;;;;;;;;5049872;28;20416;-72
2022/05/28 04:41:27;;;;;;;6.30;1.23;;;;;;;;;;5051176;28;20017;-73
2022/05/28 04:43:53;;;;;;;7.15;1.00;;;;;;;;;;5049905;28;20025;-72
2022/05/28 04:46:20;;;;;;;5.35;0.80;;;;;;;;;;5051142;28;20060;-72
2022/05/28 04:48:46;;;;;;;8.02;1.10;;;;;;;;;;5051191;28;20756;-72
2022/05/28 04:51:12;;;;;;;6.60;1.10;;;;;;;;;;5051222;28;20029;-73
2022/05/28 04:53:38;;;;;;;7.32;1.60;;;;;;;;;;5050938;28;20029;-72
2022/05/28 04:56:05;;;;;;;19.75;1.50;;;;;;;;;;5051065;28;20866;-72
2022/05/28 04:58:31;;;;;;;8.07;1.05;;;;;;;;;;5051067;28;20055;-72
2022/05/28 05:00:57;;;;;;;4.25;0.60;;;;;;;;;;5054411;28;20428;-72
2022/05/28 05:03:23;;;;;;;5.55;1.02;;;;;;;;;;5054642;28;20467;-72
2022/05/28 05:05:49;;;;;;;7.93;1.15;;;;;;;;;;5054574;28;20033;-72
2022/05/28 05:08:15;;;;;;;13.00;2.60;;;;;;;;;;5054621;28;20468;-72
2022/05/28 05:10:41;;;;;;;5.93;0.80;;;;;;;;;;5054664;28;20082;-72
2022/05/28 05:13:07;;;;;;;7.80;1.00;;;;;;;;;;5054213;28;20045;-72
2022/05/28 05:15:33;;;;;;;4.35;0.70;;;;;;;;;;5054225;28;20032;-72
2022/05/28 05:17:59;;;;;;;3.47;0.63;;;;;;;;;;5054408;28;20086;-73
2022/05/28 05:20:25;;;;;;;14.45;0.80;;;;;;;;;;5054339;28;20102;-72
2022/05/28 05:22:54;;;;;;;6.07;1.00;;;;;;;;;;5054321;28;20029;-72
2022/05/28 05:25:21;;;;;;;10.60;0.80;;;;;;;;;;5054096;28;20028;-72
2022/05/28 05:27:47;;;;;;;8.13;0.65;;;;;;;;;;5054180;28;20025;-72
2022/05/28 05:30:13;;;;;;;8.85;1.00;;;;;;;;;;5054017;28;20098;-72
2022/05/28 05:32:39;;;;;;;7.82;0.70;;;;;;;;;;5054089;28;20037;-72
2022/05/28 05:35:05;;;;;;;4.78;0.63;;;;;;;;;;5054031;28;20125;-72
2022/05/28 05:37:31;;;;;;;9.85;1.25;;;;;;;;;;5054139;28;20099;-72
2022/05/28 05:39:57;;;;;;;6.40;0.68;;;;;;;;;;5053992;28;20021;-72
2022/05/28 05:42:23;;;;;;;5.90;0.70;;;;;;;;;;5053886;28;20021;-72
2022/05/28 05:44:49;;;;;;;5.47;1.42;;;;;;;;;;5053793;28;20037;-73
2022/05/28 05:47:15;;;;;;;6.22;0.90;;;;;;;;;;5052402;28;20028;-72
2022/05/28 05:49:41;;;;;;;6.47;0.70;;;;;;;;;;5053919;28;20021;-72
2022/05/28 05:52:08;;;;;;;5.75;1.10;;;;;;;;;;5053599;28;20403;-73
2022/05/28 05:54:34;;;;;;;4.22;0.57;;;;;;;;;;5053555;28;20044;-72
2022/05/28 05:57:00;;;;;;;7.55;0.98;;;;;;;;;;5053674;28;20585;-72
2022/05/28 05:59:26;;;;;;;6.47;0.88;;;;;;;;;;5053513;28;20039;-72
2022/05/28 06:01:53;;;;;;;10.10;1.05;;;;;;;;;;5053493;28;20032;-72
2022/05/28 06:04:19;;;;;;;4.97;1.20;;;;;;;;;;5053369;28;20050;-72
2022/05/28 06:06:45;;;;;;;6.60;0.82;;;;;;;;;;5053463;28;20029;-72
2022/05/28 06:09:11;;;;;;;7.53;1.02;;;;;;;;;;5053350;28;20029;-73
2022/05/28 06:11:37;;;;;;;10.63;1.20;;;;;;;;;;5052280;28;20446;-72
2022/05/28 06:14:04;;;;;;;4.80;0.55;;;;;;;;;;5053201;28;20064;-72
2022/05/28 06:16:30;;;;;;;7.43;1.13;;;;;;;;;;5053303;28;20468;-72
2022/05/28 06:18:56;;;;;;;7.72;0.80;;;;;;;;;;5051969;28;20098;-72
2022/05/28 06:21:23;;;;;;;6.00;0.80;;;;;;;;;;5053470;28;20017;-72
2022/05/28 06:23:49;;;;;;;4.75;0.80;;;;;;;;;;5053331;28;20021;-72
2022/05/28 06:26:15;;;;;;;11.02;0.80;;;;;;;;;;5053289;28;20553;-73
2022/05/28 06:28:41;;;;;;;15.05;1.48;;;;;;;;;;5053127;28;20424;-72
2022/05/28 06:31:08;;;;;;;7.55;0.75;;;;;;;;;;5052863;28;20040;-72
2022/05/28 06:33:35;;;;;;;9.13;0.80;;;;;;;;;;5052978;28;20048;-72
2022/05/28 06:36:02;;;;;;;6.47;0.75;;;;;;;;;;5052926;28;20021;-72
2022/05/28 06:38:28;;;;;;;13.13;0.98;;;;;;;;;;5052945;28;20071;-72
2022/05/28 06:40:55;;;;;;;5.28;0.90;;;;;;;;;;5052711;28;20108;-72
2022/05/28 06:43:21;;;;;;;7.63;0.73;;;;;;;;;;5052800;28;20540;-72
2022/05/28 06:45:47;;;;;;;6.40;0.95;;;;;;;;;;5052546;28;20457;-72
2022/05/28 06:48:13;;;;;;;6.95;0.82;;;;;;;;;;5051361;28;20116;-72
2022/05/28 06:53:25;;;;;;;6.28;0.75;;;;;;;;;;5052567;28;20044;-72
2022/05/28 06:55:51;;;;;;;12.55;1.15;;;;;;;;;;5052444;28;20028;-72
2022/05/28 06:58:17;;;;;;;6.05;0.98;;;;;;;;;;5052303;28;20024;-73
2022/05/28 07:00:43;;;;;;;4.47;0.85;;;;;;;;;;5052221;28;20491;-73
2022/05/28 07:03:13;;;;;;;10.10;1.70;;;;;;;;;;5052308;28;20021;-72
2022/05/28 07:05:39;;;;;;;6.68;0.90;;;;;;;;;;5052331;28;20199;-72
2022/05/28 07:08:05;;;;;;;6.72;0.80;;;;;;;;;;5052240;28;20032;-72
2022/05/28 07:10:32;;;;;;;17.55;1.10;;;;;;;;;;5052274;28;20017;-72
2022/05/28 07:12:58;;;;;;;9.80;1.10;;;;;;;;;;5052024;28;20045;-72
2022/05/28 07:15:24;;;;;;;9.43;0.90;;;;;;;;;;5051971;28;20139;-72
2022/05/28 07:17:50;;;;;;;11.55;1.45;;;;;;;;;;5051819;28;20025;-72
2022/05/28 07:20:16;;;;;;;6.55;0.70;;;;;;;;;;5051844;28;20383;-72
2022/05/28 07:22:42;;;;;;;14.25;1.00;;;;;;;;;;5051995;28;20029;-73
2022/05/28 07:25:09;;;;;;;11.73;1.00;;;;;;;;;;5051627;28;20060;-73
2022/05/28 07:27:35;;;;;;;8.50;0.70;;;;;;;;;;5051733;28;20043;-73
2022/05/28 07:30:01;;;;;;;8.07;0.98;;;;;;;;;;5051369;28;20111;-73
2022/05/28 07:32:30;;;;;;;8.20;1.02;;;;;;;;;;5051476;28;20067;-73
2022/05/28 07:34:59;;;;;;;10.45;1.75;;;;;;;;;;5051488;28;20029;-72
2022/05/28 07:37:26;;;;;;;5.55;1.50;;;;;;;;;;5050243;28;20413;-72
2022/05/28 07:39:52;;;;;;;8.38;0.88;;;;;;;;;;5051623;28;20043;-72
2022/05/28 07:42:18;;;;;;;11.25;1.13;;;;;;;;;;5051316;28;20179;-73
2022/05/28 07:44:44;;;;;;;7.80;0.90;;;;;;;;;;5051352;28;20037;-72
2022/05/28 07:47:10;;;;;;;5.93;1.05;;;;;;;;;;5051245;28;20036;-72
2022/05/28 07:49:37;;;;;;;7.97;1.40;;;;;;;;;;5051511;28;20032;-72
2022/05/28 07:52:03;;;;;;;6.85;1.00;;;;;;;;;;5050166;28;20033;-74
2022/05/28 07:54:30;;;;;;;4.95;0.60;;;;;;;;;;5051298;28;20069;-72
2022/05/28 07:56:56;;;;;;;9.38;1.02;;;;;;;;;;5051504;28;20086;-72
2022/05/28 07:59:23;;;;;;;8.15;0.98;;;;;;;;;;5051374;28;20017;-73
2022/05/28 08:01:49;;;;;;;6.15;0.80;;;;;;;;;;5051324;28;20025;-73
2022/05/28 08:04:15;;;;;;;6.97;1.00;;;;;;;;;;5050115;28;20071;-73
2022/05/28 08:06:41;;;;;;;9.27;1.05;;;;;;;;;;5051435;28;20064;-72
2022/05/28 08:09:08;;;;;;;4.93;1.02;;;;;;;;;;5051284;28;20040;-73
2022/05/28 08:11:34;;;;;;;7.55;0.82;;;;;;;;;;5051039;28;20083;-73
2022/05/28 08:14:00;;;;;;;8.40;1.15;;;;;;;;;;5051022;28;20060;-72
2022/05/28 08:16:26;;;;;;;9.77;1.10;;;;;;;;;;5051334;28;20108;-73
2022/05/28 08:18:52;;;;;;;6.63;1.02;;;;;;;;;;5051380;28;20456;-73
2022/05/28 08:24:04;;;;;;;5.63;0.80;;;;;;;;;;5051676;28;20043;-73
2022/05/28 08:26:30;;;;;;;8.07;1.10;;;;;;;;;;5051127;28;20100;-73
2022/05/28 08:28:56;;;;;;;7.13;0.98;;;;;;;;;;5051006;28;20080;-73
2022/05/28 08:31:23;;;;;;;4.50;1.23;;;;;;;;;;5051183;28;20430;-74
2022/05/28 08:33:49;;;;;;;6.13;0.90;;;;;;;;;;5051385;28;20048;-73
2022/05/28 08:36:16;;;;;;;6.15;0.80;;;;;;;;;;5053659;28;20029;-73
2022/05/28 08:38:42;;;;;;;5.28;0.90;;;;;;;;;;5054954;28;20121;-73
2022/05/28 08:41:08;;;;;;;10.15;1.25;;;;;;;;;;5054895;28;20036;-72
2022/05/28 08:43:39;;;;;;;9.85;1.33;;;;;;;;;;5055142;28;20048;-73
2022/05/28 08:46:08;;;;;;;6.25;1.00;;;;;;;;;;5054916;28;20428;-73
2022/05/28 08:48:38;;;;;;;9.38;1.15;;;;;;;;;;5055082;28;20029;-73
2022/05/28 08:51:25;;;;;;;10.65;1.40;;;;;;;;;;5054971;28;20024;-73
2022/05/28 08:53:55;;;;;;;6.18;1.20;;;;;;;;;;5054515;28;20028;-73
2022/05/28 08:56:24;;;;;;;8.32;0.93;;;;;;;;;;5054823;28;20390;-73
2022/05/28 08:59:06;;;;;;;11.75;1.30;;;;;;;;;;5054679;28;20013;-73
2022/05/28 09:01:33;;;;;;;10.38;1.75;;;;;;;;;;5054622;28;20021;-72
2022/05/28 09:04:01;;;;;;;10.88;1.55;;;;;;;;;;5054713;28;20033;-72
2022/05/28 09:06:39;;;;;;;9.88;2.00;;;;;;;;;;5054550;28;20031;-72
2022/05/28 09:09:07;;;;;;;7.18;1.27;;;;;;;;;;5054495;28;20017;-73
2022/05/28 09:11:36;;;;;;;8.65;1.15;;;;;;;;;;5053183;28;20124;-72
2022/05/28 09:14:24;;;;;;;10.10;1.23;;;;;;;;;;5054241;28;20399;-73
2022/05/28 09:16:52;;;;;;;6.78;1.20;;;;;;;;;;5052967;28;20344;-73
2022/05/28 09:19:23;;;;;;;8.73;1.17;;;;;;;;;;5054319;28;20408;-72
2022/05/28 09:21:49;;;;;;;6.65;1.13;;;;;;;;;;5054439;28;20123;-73
2022/05/28 09:24:18;;;;;;;7.53;1.00;;;;;;;;;;5054243;28;20101;-73
2022/05/28 09:26:57;;;;;;;8.20;1.38;;;;;;;;;;5054074;28;20025;-73
2022/05/28 09:29:35;;;;;;;5.90;1.00;;;;;;;;;;5054205;28;20033;-72
2022/05/28 09:32:04;;;;;;;3.08;0.77;;;;;;;;;;5054065;28;20033;-73
2022/05/28 09:34:40;;;;;;;10.98;1.30;;;;;;;;;;5054020;28;20025;-72
2022/05/28 09:37:25;;;;;;;6.70;1.02;;;;;;;;;;5054033;28;20017;-72
2022/05/28 09:39:54;;;;;;;5.95;1.05;;;;;;;;;;5053929;28;20471;-72
2022/05/28 09:42:32;;;;;;;7.30;1.05;;;;;;;;;;5053857;28;20029;-72
2022/05/28 09:45:17;;;;;;;6.88;1.15;;;;;;;;;;5053539;28;20032;-72
2022/05/28 09:47:44;;;;;;;5.63;0.98;;;;;;;;;;5053299;28;20029;-72
2022/05/28 09:50:18;;;;;;;8.23;1.17;;;;;;;;;;5053916;28;20816;-72
2022/05/28 09:55:50;;;;;;;7.60;1.20;;;;;;;;;;5031166;28;20037;-72
2022/05/28 09:58:19;;;;;;;5.10;1.17;;;;;;;;;;5031061;28;20541;-73
2022/05/28 10:00:47;;;;;;;4.25;1.23;;;;;;;;;;5031092;28;20038;-72
2022/05/28 10:05:59;;;;;;;8.60;0.85;;;;;;;;;;5031225;28;20510;-73
2022/05/28 10:08:32;;;;;;;8.82;1.00;;;;;;;;;;5031292;28;20037;-73
2022/05/28 10:11:01;;;;;;;5.88;1.00;;;;;;;;;;5030832;28;20419;-72
2022/05/28 10:13:30;;;;;;;4.53;1.23;;;;;;;;;;5030950;28;20053;-73
2022/05/28 10:15:57;;;;;;;6.38;1.08;;;;;;;;;;5030944;28;20030;-72
2022/05/28 10:18:26;;;;;;;6.47;0.85;;;;;;;;;;5031156;28;20120;-72
2022/05/28 10:21:07;;;;;;;5.78;1.00;;;;;;;;;;5031042;28;20026;-72
2022/05/28 10:23:36;;;;;;;6.33;0.90;;;;;;;;;;5031070;28;20075;-72
2022/05/28 10:26:02;;;;;;;10.35;1.45;;;;;;;;;;5030682;28;20131;-72
2022/05/28 10:28:29;;;;;;;6.30;0.85;;;;;;;;;;5030832;28;20064;-72
2022/05/28 10:30:55;;;;;;;14.48;1.40;;;;;;;;;;5038316;28;20043;-73
2022/05/28 10:33:24;;;;;;;12.25;1.30;;;;;;;;;;5053038;28;20100;-73
2022/05/28 10:35:50;;;;;;;8.77;1.33;;;;;;;;;;5052987;28;20510;-73
2022/05/28 10:38:18;;;;;;;8.98;1.08;;;;;;;;;;5052863;28;20068;-72
2022/05/28 10:40:47;;;;;;;3.42;0.77;;;;;;;;;;5052840;28;20400;-72
2022/05/28 10:43:22;;;;;;;7.82;0.90;;;;;;;;;;5051402;28;20075;-72
2022/05/28 10:45:52;;;;;;;7.18;0.98;;;;;;;;;;5052672;28;20445;-72
2022/05/28 10:48:18;;;;;;;10.85;1.50;;;;;;;;;;5052701;28;20079;-72
2022/05/28 10:50:59;;;;;;;6.45;1.08;;;;;;;;;;5052600;28;20033;-72
2022/05/28 10:53:57;;;;;;;2.53;0.63;;;;;;;;;;5052451;28;20485;-72
2022/05/28 10:56:32;;;;;;;7.88;1.08;;;;;;;;;;5013443;28;20040;-72
2022/05/28 10:59:17;;;;;;;8.57;1.30;;;;;;;;;;5013627;28;20047;-72
2022/05/28 11:01:45;;;;;;;3.53;0.80;;;;;;;;;;5029981;28;20057;-72
2022/05/28 11:04:23;;;;;;;7.43;0.80;;;;;;;;;;5030013;28;20029;-72
2022/05/28 11:06:58;;;;;;;8.50;0.70;;;;;;;;;;5030045;28;20047;-72
2022/05/28 11:09:37;;;;;;;5.10;0.88;;;;;;;;;;5029927;28;20099;-72
2022/05/28 11:12:03;;;;;;;5.78;1.05;;;;;;;;;;5013480;28;20543;-72
2022/05/28 11:14:48;;;;;;;2.88;1.02;;;;;;;;;;5029841;28;20041;-72
2022/05/28 11:17:14;;;;;;;7.38;1.00;;;;;;;;;;5029915;28;20037;-73
2022/05/28 11:19:49;;;;;;;9.05;1.25;;;;;;;;;;5029755;28;20630;-72
2022/05/28 11:22:24;;;;;;;5.60;0.80;;;;;;;;;;5029671;28;20036;-72
2022/05/28 11:25:01;;;;;;;4.88;0.80;;;;;;;;;;5029699;28;20196;-72
2022/05/28 11:27:42;;;;;;;5.20;0.60;;;;;;;;;;5010118;28;20030;-73
2022/05/28 11:30:23;;;;;;;3.35;0.70;;;;;;;;;;5009848;28;20040;-72
2022/05/28 11:33:15;;;;;;;5.10;0.95;;;;;;;;;;5028717;28;20037;-72
2022/05/28 11:35:50;;;;;;;6.82;0.88;;;;;;;;;;5016476;28;20039;-72
2022/05/28 11:38:31;;;;;;;9.48;1.40;;;;;;;;;;5032019;28;20104;-72
2022/05/28 11:41:04;;;;;;;4.63;1.02;;;;;;;;;;5031801;28;20041;-72
2022/05/28 11:43:33;;;;;;;9.00;1.40;;;;;;;;;;5031948;28;20026;-72
2022/05/28 11:45:59;;;;;;;9.85;1.58;;;;;;;;;;5031830;28;20025;-73
2022/05/28 11:51:27;;;;;;;6.20;1.10;;;;;;;;;;5031934;28;20037;-72
2022/05/28 11:51:27;;;;;;;8.57;1.75;;;;;;;;;;5031917;28;20063;-72
2022/05/28 11:53:57;;;;;;;11.25;1.25;;;;;;;;;;5031284;28;20360;-72
2022/05/28 11:56:28;;;;;;;7.35;0.70;;;;;;;;;;5030743;28;20786;-74
2022/05/28 11:59:10;;;;;;;5.78;1.10;;;;;;;;;;5036191;28;20521;-75
2022/05/28 12:01:45;;;;;;;6.32;1.08;;;;;;;;;;5051421;28;20025;-76
2022/05/28 12:04:11;;;;;;;3.92;1.13;;;;;;;;;;5051431;28;20083;-77
2022/05/28 12:06:38;;;;;;;5.88;0.82;;;;;;;;;;5052081;28;20044;-75
2022/05/28 12:09:18;;;;;;;5.50;0.98;;;;;;;;;;5052957;28;20059;-76
2022/05/28 12:12:11;;;;;;;6.25;1.05;;;;;;;;;;5055485;28;20109;-76
2022/05/28 12:14:39;;;;;;;8.77;0.75;;;;;;;;;;5034967;28;20041;-76
2022/05/28 12:17:06;;;;;;;3.20;0.90;;;;;;;;;;5055219;28;20021;-77
2022/05/28 12:19:32;;;;;;;7.72;1.35;;;;;;;;;;5055181;28;20485;-75
2022/05/28 12:22:17;;;;;;;14.70;4.60;;;;;;;;;;5055246;28;20021;-75
2022/05/28 12:24:45;;;;;;;17.40;9.90;;;;;;;;;;5055461;28;20036;-78
2022/05/28 12:27:22;;;;;;;11.23;2.78;;;;;;;;;;5055071;28;20055;-75
2022/05/28 12:29:58;;;;;;;6.85;1.10;;;;;;;;;;5055581;28;20096;-79
2022/05/28 12:32:26;;;;;;;8.23;1.33;;;;;;;;;;5054674;28;20124;-78
2022/05/28 12:34:55;;;;;;;10.13;1.95;;;;;;;;;;5055810;28;20025;-82
2022/05/28 12:37:24;;;;;;;7.47;0.90;;;;;;;;;;5055480;28;20761;-76
2022/05/28 12:39:57;;;;;;;10.13;1.40;;;;;;;;;;5055108;28;20498;-77
2022/05/28 12:42:29;;;;;;;15.15;1.90;;;;;;;;;;5055090;28;20028;-75
2022/05/28 12:44:55;;;;;;;4.10;0.82;;;;;;;;;;5054204;28;20044;-76
2022/05/28 12:47:29;;;;;;;6.57;0.98;;;;;;;;;;5054293;28;20029;-76
2022/05/28 12:49:56;;;;;;;6.05;0.90;;;;;;;;;;5054031;28;20029;-76
2022/05/28 12:52:33;;;;;;;8.15;1.05;;;;;;;;;;5054249;28;20150;-76
2022/05/28 12:55:22;;;;;;;8.65;1.15;;;;;;;;;;5052467;28;20044;-75
2022/05/28 12:58:03;;;;;;;11.75;1.13;;;;;;;;;;5007755;28;20444;-76
2022/05/28 13:00:31;;;;;;;11.32;1.15;;;;;;;;;;5009857;28;20057;-76
2022/05/28 13:02:58;;;;;;;6.20;0.98;;;;;;;;;;5012290;28;20042;-76
2022/05/28 13:05:42;;;;;;;7.90;1.60;;;;;;;;;;5012420;28;20160;-76
2022/05/28 13:08:17;;;;;;;7.18;1.33;;;;;;;;;;5012411;28;20042;-75
2022/05/28 13:11:01;;;;;;;4.55;0.93;;;;;;;;;;5011963;28;20056;-76
2022/05/28 13:13:29;;;;;;;8.57;1.00;;;;;;;;;;5009383;28;20058;-76
2022/05/28 13:15:58;;;;;;;3.85;0.80;;;;;;;;;;5011875;28;20048;-76
2022/05/28 13:18:42;;;;;;;3.25;0.88;;;;;;;;;;5011575;28;20380;-76
2022/05/28 13:21:11;;;;;;;4.60;0.93;;;;;;;;;;5011221;28;20048;-76
2022/05/28 13:23:47;;;;;;;5.40;1.10;;;;;;;;;;5011935;28;20022;-75
2022/05/28 13:26:22;;;;;;;1.38;0.57;;;;;;;;;;5011633;28;20373;-75
2022/05/28 13:29:00;;;;;;;4.65;0.90;;;;;;;;;;5011511;28;20064;-75
2022/05/28 13:31:30;;;;;;;5.07;1.05;;;;;;;;;;5011701;28;20056;-75
2022/05/28 13:33:57;;;;;;;4.20;0.95;;;;;;;;;;5017557;28;20107;-74
2022/05/28 13:36:29;;;;;;;5.88;0.90;;;;;;;;;;5053935;28;20025;-74
2022/05/28 13:38:56;;;;;;;2.47;0.85;;;;;;;;;;5054185;28;20024;-75
2022/05/28 13:41:24;;;;;;;5.68;0.88;;;;;;;;;;5054069;28;20482;-75
2022/05/28 13:43:51;;;;;;;6.90;1.00;;;;;;;;;;5054021;28;20025;-75
2022/05/28 13:46:18;;;;;;;6.55;1.08;;;;;;;;;;5053919;28;20041;-77
2022/05/28 13:48:46;;;;;;;4.13;0.90;;;;;;;;;;5054018;28;20032;-76
2022/05/28 13:51:13;;;;;;;3.80;0.88;;;;;;;;;;5053930;28;20448;-75
2022/05/28 13:53:43;;;;;;;4.50;1.30;;;;;;;;;;5051732;28;20480;-77
2022/05/28 13:56:09;;;;;;;5.75;1.02;;;;;;;;;;5052444;28;20395;-77
2022/05/28 13:58:40;;;;;;;4.35;1.02;;;;;;;;;;5053493;28;20023;-76
2022/05/28 14:01:08;;;;;;;4.68;1.13;;;;;;;;;;5052767;28;20017;-76
2022/05/28 14:03:36;;;;;;;10.10;1.33;;;;;;;;;;5051829;28;20521;-75
2022/05/28 14:06:02;;;;;;;4.55;1.20;;;;;;;;;;5053300;28;20113;-75
2022/05/28 14:08:46;;;;;;;7.25;1.15;;;;;;;;;;5053363;28;20036;-76
2022/05/28 14:11:32;;;;;;;10.82;1.30;;;;;;;;;;5052288;28;20494;-76
2022/05/28 14:14:00;;;;;;;7.55;1.35;;;;;;;;;;5044194;28;20045;-76
2022/05/28 14:16:27;;;;;;;5.22;0.90;;;;;;;;;;5053168;28;20117;-75
2022/05/28 14:18:55;;;;;;;4.65;1.02;;;;;;;;;;5052938;28;20459;-75
2022/05/28 14:21:23;;;;;;;8.77;1.10;;;;;;;;;;5050673;28;20534;-75
2022/05/28 14:23:49;;;;;;;5.13;0.88;;;;;;;;;;5052889;28;20471;-75
2022/05/28 14:26:16;;;;;;;9.40;1.30;;;;;;;;;;5052997;28;20108;-76
2022/05/28 14:28:42;;;;;;;10.77;1.30;;;;;;;;;;5052914;28;20033;-75
2022/05/28 14:31:11;;;;;;;7.07;1.08;;;;;;;;;;5052886;28;20493;-78
2022/05/28 14:33:39;;;;;;;10.48;1.55;;;;;;;;;;5052855;28;20375;-77
2022/05/28 14:36:07;;;;;;;10.05;1.33;;;;;;;;;;5053333;28;20467;-77
2022/05/28 14:38:33;;;;;;;9.82;1.33;;;;;;;;;;5053136;28;20433;-73
2022/05/28 14:41:00;;;;;;;8.85;1.40;;;;;;;;;;5052908;28;20049;-74
2022/05/28 14:43:28;;;;;;;5.90;1.00;;;;;;;;;;5053005;28;20021;-77
2022/05/28 14:46:21;;;;;;;8.45;1.38;;;;;;;;;;5052075;28;20040;-75
2022/05/28 14:48:47;;;;;;;9.68;1.33;;;;;;;;;;5018234;28;20033;-75
2022/05/28 14:51:13;;;;;;;11.70;1.13;;;;;;;;;;5021106;28;20049;-75
2022/05/28 14:53:44;;;;;;;6.55;1.10;;;;;;;;;;5021229;28;20083;-76
2022/05/28 14:56:30;;;;;;;6.47;1.10;;;;;;;;;;5019658;28;20026;-75
2022/05/28 14:58:56;;;;;;;6.93;1.05;;;;;;;;;;5020520;28;20157;-76
2022/05/28 15:01:28;;;;;;;8.57;1.00;;;;;;;;;;5020110;28;20508;-76